Αναφορές METAR

 

LGKR - Ioannis Kapodist, Greece
Απόσταση από το σταθμό: ΝΝΑ 16km
Ενημερώθηκε: 26/06/2017 00:50
Αίθριος
Αίθριος
 Ανεμος από ΔΝΔ
Ανεμος: ΔΝΔ 4 km/h
Θερμοκρασία: 24°C
Σημείο Δρόσου: 18°C
Υγρασία: 69%
Βαρόμετρο: 1012 hPa
Summary: Αίθριος
Ορατότητα: greater than 10 km
2017/06/25 21:50 LGKR 252150Z 24002KT CAVOK 24/18 Q1012 NOSIG
LGIO - Ioannina, Greece
Απόσταση από το σταθμό: Α 84km
Ενημερώθηκε: 25/06/2017 22:20
ΜΗ ΠΡΟΣΦΑΤΟ METAR
Διάσπαρτα Νέφη
Διάσπαρτα Νέφη
 Ανεμος από μεταβλητός
Ανεμος: μεταβλητός 0 km/h
Θερμοκρασία: 21°C
Σημείο Δρόσου: 19°C
Υγρασία: 88%
Βαρόμετρο: 1017 hPa
Νέφωση: Διάσπαρτα Νέφη
Ορατότητα: 10 km
Λεπτομέρειες νέφωσης: Διάσπαρτα Νέφη 2134 m
2017/06/25 19:20 LGIO 251920Z /////KT 9999 FEW070 21/19 Q1017
 
LGPZ - Preveza/Aktion, Greece
Απόσταση από το σταθμό: ΝΑ 122km
Ενημερώθηκε: 26/06/2017 00:50
Διάσπαρτα Νέφη
Διάσπαρτα Νέφη
 Ανεμος από calm
Ανεμος: Απνοια
Θερμοκρασία: 23°C
Σημείο Δρόσου: 22°C
Υγρασία: 94%
Βαρόμετρο: 1012 hPa
Νέφωση: Διάσπαρτα Νέφη
Ορατότητα: 10 km
Λεπτομέρειες νέφωσης: Διάσπαρτα Νέφη 457 m
2017/06/25 21:50 LGPZ 252150Z 00000KT 9999 FEW015 23/22 Q1012
LIBY - Santa Maria Di L, Italy
Απόσταση από το σταθμό: Δ 128km
Ενημερώθηκε: 26/06/2017 00:55
Αίθριος
Αίθριος
 Ανεμος από Ν
Ανεμος: Ν 6 km/h
Θερμοκρασία: 26°C
Σημείο Δρόσου: 24°C
Υγρασία: 89%
Βαρόμετρο: 1012 hPa
Summary: Αίθριος
Ορατότητα: greater than 10 km
2017/06/25 21:55 LIBY 252155Z 18003KT CAVOK 26/24 Q1012 RMK SKC QUK / QUL / VIS MAR 15 KM VIS MIN 9999
 
LIBN - Lecce (it-Afb), Italy
Απόσταση από το σταθμό: ΔΒΔ 155km
Ενημερώθηκε: 26/06/2017 00:55
Αίθριος
Αίθριος
 Ανεμος από Ν
Ανεμος: Ν 7 km/h
Θερμοκρασία: 24°C
Σημείο Δρόσου: 20°C
Υγρασία: 78%
Βαρόμετρο: 1012 hPa
Summary: Αίθριος
Ορατότητα: greater than 10 km
2017/06/25 21:55 LIBN 252155Z 17004KT CAVOK 24/20 Q1012 RMK SKC VIS MIN 9999 WIND THR14 18004KT WIND THR32 17003KT BLU
LWOH - Ohrid, Macedonia
Απόσταση από το σταθμό: ΒΒΑ 177km
Ενημερώθηκε: 25/06/2017 21:00
ΜΗ ΠΡΟΣΦΑΤΟ METAR
Μερικώς Νεφελώδης
Μερικώς Νεφελώδης
 Ανεμος από ΝΝΑ
Ανεμος: ΝΝΑ 4 km/h
Θερμοκρασία: 25°C
Σημείο Δρόσου: 12°C
Υγρασία: 44%
Βαρόμετρο: 1015 hPa
Νέφωση: Μερικώς Νεφελώδης
Ορατότητα: 10 km
Λεπτομέρειες νέφωσης: Διάσπαρτα Νέφη 1372 m
Μερικώς Νεφελώδης 1829 m
2017/06/25 18:00 LWOH 251800Z 15002KT 9999 FEW045 SCT060 25/12 Q1015
 
LGKZ - Kozani (civ/Army, Greece
Απόσταση από το σταθμό: ΑΒΑ 180km
Ενημερώθηκε: 25/06/2017 14:50
ΜΗ ΠΡΟΣΦΑΤΟ METAR
Αίθριος
Αίθριος
 Ανεμος από calm
Ανεμος: Απνοια
Θερμοκρασία: 31°C
Σημείο Δρόσου: 12°C
Υγρασία: 31%
Βαρόμετρο: 1017 hPa
Summary: Αίθριος
Ορατότητα: greater than 10 km
2017/06/25 11:50 LGKZ 251150Z 00000KT CAVOK 31/12 Q1017
LATI - Tirana, Albania
Απόσταση από το σταθμό: Β 186km
Ενημερώθηκε: 26/06/2017 01:20
Αίθριος
Αίθριος
 Ανεμος από μεταβλητός
Ανεμος: μεταβλητός 4 km/h
Θερμοκρασία: 22°C
Σημείο Δρόσου: 18°C
Υγρασία: 78%
Βαρόμετρο: 1013 hPa
Summary: Αίθριος
Ορατότητα: greater than 10 km
2017/06/25 22:20 LATI 252220Z VRB02KT CAVOK 22/18 Q1013 NOSIG
 
LIBR - Brindisi/Casale, Italy
Απόσταση από το σταθμό: ΔΒΔ 189km
Ενημερώθηκε: 26/06/2017 01:15
Αίθριος
Αίθριος
 Ανεμος από ΝΝΔ
Ανεμος: ΝΝΔ 26 km/h
Θερμοκρασία: 27°C
Heat Index: 29°C
Σημείο Δρόσου: 22°C
Υγρασία: 74%
Βαρόμετρο: 1011 hPa
Summary: Αίθριος
Ορατότητα: greater than 10 km
2017/06/25 22:15 LIBR 252215Z 21014KT CAVOK 27/22 Q1011 NOSIG
LGKF - Kefallinia, Greece
Απόσταση από το σταθμό: ΝΝΑ 190km
Ενημερώθηκε: 25/06/2017 22:50
ΜΗ ΠΡΟΣΦΑΤΟ METAR
Διάσπαρτα Νέφη
Διάσπαρτα Νέφη
 Ανεμος από calm
Ανεμος: Απνοια
Θερμοκρασία: 24°C
Σημείο Δρόσου: 22°C
Υγρασία: 89%
Βαρόμετρο: 1012 hPa
Νέφωση: Διάσπαρτα Νέφη
Ορατότητα: 10 km
Λεπτομέρειες νέφωσης: Διάσπαρτα Νέφη 549 m
2017/06/25 19:50 LGKF 251950Z 00000KT 9999 FEW018 24/22 Q1012
 
LGRX - Araxos (civ/Afb), Greece
Απόσταση από το σταθμό: ΝΑ 222km
Ενημερώθηκε: 26/06/2017 00:50
Αίθριος
Αίθριος
 Ανεμος από calm
Ανεμος: Απνοια
Θερμοκρασία: 23°C
Σημείο Δρόσου: 22°C
Υγρασία: 94%
Βαρόμετρο: 1012 hPa
Summary: Αίθριος
Ορατότητα: greater than 10 km
2017/06/25 21:50 LGRX 252150Z 00000KT CAVOK 23/22 Q1012
LIBG - Grottaglie(Civ/A, Italy
Απόσταση από το σταθμό: ΔΒΔ 226km
Ενημερώθηκε: 25/06/2017 20:50
ΜΗ ΠΡΟΣΦΑΤΟ METAR
Αίθριος
Αίθριος
 Ανεμος από ΔΝΔ
Ανεμος: ΔΝΔ 6 km/h
Θερμοκρασία: 29°C
Heat Index: 30°C
Σημείο Δρόσου: 19°C
Υγρασία: 55%
Βαρόμετρο: 1010 hPa
Summary: Αίθριος
Ορατότητα: greater than 10 km
2017/06/25 17:50 LIBG 251750Z 25003KT 220V280 CAVOK 29/19 Q1010
 
LGAD - Andravida (civ/A, Greece
Απόσταση από το σταθμό: ΝΝΑ 238km
Ενημερώθηκε: 26/06/2017 01:20
Διάσπαρτα Νέφη
Διάσπαρτα Νέφη
 Ανεμος από calm
Ανεμος: Απνοια
Θερμοκρασία: 22°C
Σημείο Δρόσου: 18°C
Υγρασία: 78%
Βαρόμετρο: 1012 hPa
Νέφωση: Διάσπαρτα Νέφη
Ορατότητα: 10 km
Λεπτομέρειες νέφωσης: Διάσπαρτα Νέφη 762 m
2017/06/25 22:20 LGAD 252220Z 00000KT 9999 FEW025 22/18 Q1012
LGZA - Zakinthos Airpor, Greece
Απόσταση από το σταθμό: ΝΝΑ 239km
Ενημερώθηκε: 25/06/2017 22:20
ΜΗ ΠΡΟΣΦΑΤΟ METAR
Αίθριος
Αίθριος
 Ανεμος από calm
Ανεμος: Απνοια
Θερμοκρασία: 25°C
Σημείο Δρόσου: 20°C
Υγρασία: 74%
Βαρόμετρο: 1012 hPa
Summary: Αίθριος
Ορατότητα: greater than 10 km
2017/06/25 19:20 LGZA 251920Z 00000KT CAVOK 25/20 Q1012
 
LIBC - Crotone, Italy
Απόσταση από το σταθμό: ΔΝΔ 253km
Ενημερώθηκε: 14/12/2016 14:50
ΜΗ ΠΡΟΣΦΑΤΟ METAR
Αίθριος
Αίθριος
 Ανεμος από Α
Ανεμος: Α 7 km/h
Θερμοκρασία: 13°C
Σημείο Δρόσου: 1°C
Υγρασία: 44%
Βαρόμετρο: 1026 hPa
Summary: Αίθριος
Ορατότητα: greater than 10 km
2016/12/14 12:50 LIBC 141250Z 08004KT CAVOK 13/01 Q1026
LGBL - Nea Anchialos, Greece
Απόσταση από το σταθμό: ΑΝΑ 261km
Ενημερώθηκε: 26/06/2017 00:50
Αίθριος
Αίθριος
 Ανεμος από calm
Ανεμος: Απνοια
Θερμοκρασία: 23°C
Σημείο Δρόσου: 16°C
Υγρασία: 65%
Βαρόμετρο: 1011 hPa
Summary: Αίθριος
Ορατότητα: greater than 10 km
2017/06/25 21:50 LGBL 252150Z 00000KT CAVOK 23/16 Q1011
 
LIBH - Marina Di Ginosa, Italy
Απόσταση από το σταθμό: ΔΒΔ 264km
Ενημερώθηκε: 26/06/2017 00:55
Αίθριος
Αίθριος
 Ανεμος από ΒΔ
Ανεμος: ΒΔ 4 km/h
Θερμοκρασία: 26°C
Σημείο Δρόσου: 23°C
Υγρασία: 84%
Βαρόμετρο: 1011 hPa
Summary: Αίθριος
Ορατότητα: greater than 10 km
2017/06/25 21:55 LIBH 252155Z 32002KT CAVOK 26/23 Q1011 RMK SKC QUK / QUL / VIS MAR 15 KM VIS MIN 9999
LIBV - Gioia Del Colle, Italy
Απόσταση από το σταθμό: ΔΒΔ 273km
Ενημερώθηκε: 26/06/2017 00:55
Αίθριος
Αίθριος
 Ανεμος από ΝΔ
Ανεμος: ΝΔ 2 km/h
Θερμοκρασία: 24°C
Σημείο Δρόσου: 20°C
Υγρασία: 78%
Βαρόμετρο: 1013 hPa
Summary: Αίθριος
Ορατότητα: greater than 10 km
2017/06/25 21:55 LIBV 252155Z 22001KT CAVOK 24/20 Q1013 RMK FEW FEW200 VIS MIN 9999 WIND THR32 21002KT WIND THR14 23002KT BLU
 
LGTS - Thessaloniki/Mik, Greece
Απόσταση από το σταθμό: ΑΒΑ 279km
Ενημερώθηκε: 26/06/2017 01:20
Διάσπαρτα Νέφη
Διάσπαρτα Νέφη
 Ανεμος από μεταβλητός
Ανεμος: μεταβλητός 6 km/h
Θερμοκρασία: 24°C
Σημείο Δρόσου: 16°C
Υγρασία: 61%
Βαρόμετρο: 1012 hPa
Νέφωση: Διάσπαρτα Νέφη
Ορατότητα: 10 km
Λεπτομέρειες νέφωσης: Διάσπαρτα Νέφη 914 m
2017/06/25 22:20 LGTS 252220Z VRB03KT 9999 FEW030 24/16 Q1012 NOSIG
LWSK - Skopje/Petrovac, Macedonia
Απόσταση από το σταθμό: ΒΒΑ 289km
Ενημερώθηκε: 26/06/2017 01:00
Αίθριος
Αίθριος
 Ανεμος από ΒΒΑ
Ανεμος: ΒΒΑ 13 km/h
Θερμοκρασία: 22°C
Σημείο Δρόσου: 14°C
Υγρασία: 61%
Βαρόμετρο: 1013 hPa
Summary: Αίθριος
Ορατότητα: greater than 10 km
2017/06/25 22:00 LWSK 252200Z 03007KT CAVOK 22/14 Q1013 NOSIG


 ♦     ♦     ♦     Ποτέ μη βασίζετε κρίσιμες αποφάσεις σ'αυτές ή οποιεσδήποτε πληροφορίες καιρού από το Internet     ♦     ♦     ♦